Charlestown, New Hampshire
Current Conditions -  °F | °C
As of 8:54 PM on Saturday 22 Nov 2014 (Local Time) from KVSF Reporting Station
Scattered Clouds Scattered Clouds  
Wind Chill: 31°   Ceiling: Unl
Heat Index: 31°   Visibility: 10mi
Dew Point: 20°   Wind: 3mph
Humidity: 64%   Direction: 320°NW
Pressure: 30"   Gusts: NA
Location:  43.24°N, 72.42°W
Report Text: KVSF 230154Z AUTO 32003KT 10SM SCT035 M01/M07 A3000 RMK AO2 SLP168 T10061067
Loading
Personal Weather Stations






























Interactive Weather Map New forecast layout! Learn more

10-Day Weather Forecast

Advertisements
Track Severe Weather on mobile